createdAt,value
2019-03-12T00:00:33.615Z,6.97
2019-03-12T00:03:05.331Z,9.07
2019-03-12T00:05:36.531Z,6.97
2019-03-12T00:08:07.755Z,10.93
2019-03-12T00:10:38.868Z,8.33
2019-03-12T00:13:10.032Z,11.13
2019-03-12T00:15:41.451Z,6.30
2019-03-12T00:18:12.839Z,6.47
2019-03-12T00:20:43.960Z,6.73
2019-03-12T00:23:15.099Z,10.17
2019-03-12T00:25:46.228Z,7.93
2019-03-12T00:28:17.392Z,16.53
2019-03-12T00:30:48.608Z,8.63
2019-03-12T00:33:19.777Z,12.50
2019-03-12T00:35:50.903Z,10.67
2019-03-12T00:38:22.037Z,9.73
2019-03-12T00:40:53.167Z,12.47
2019-03-12T00:43:24.072Z,7.10
2019-03-12T00:45:55.197Z,7.37
2019-03-12T00:48:26.331Z,9.47
2019-03-12T00:50:57.850Z,8.97
2019-03-12T00:53:29.058Z,5.17
2019-03-12T00:56:00.436Z,7.67
2019-03-12T00:58:31.579Z,8.47
2019-03-12T01:01:02.731Z,10.63
2019-03-12T01:03:33.884Z,6.63
2019-03-12T01:06:05.095Z,9.90
2019-03-12T01:08:36.491Z,13.13
2019-03-12T01:11:07.635Z,5.23
2019-03-12T01:13:38.590Z,4.67
2019-03-12T01:16:09.732Z,6.57
2019-03-12T01:18:40.915Z,6.40
2019-03-12T01:25:18.799Z,6.83
2019-03-12T01:27:49.924Z,7.60
2019-03-12T01:30:20.827Z,6.60
2019-03-12T01:32:51.966Z,8.80
2019-03-12T01:35:23.112Z,9.07
2019-03-12T01:37:54.246Z,8.03
2019-03-12T01:40:25.270Z,9.80
2019-03-12T01:42:56.637Z,11.43
2019-03-12T01:45:27.839Z,13.23
2019-03-12T01:47:59.047Z,7.00
2019-03-12T01:50:30.255Z,5.83
2019-03-12T01:53:01.745Z,11.77
2019-03-12T01:55:32.866Z,11.83
2019-03-12T01:58:04.232Z,7.13
2019-03-12T02:00:35.453Z,9.43
2019-03-12T02:03:06.835Z,10.57
2019-03-12T02:05:37.979Z,13.60
2019-03-12T02:08:09.121Z,17.03
2019-03-12T02:10:40.585Z,11.03
2019-03-12T02:13:12.013Z,12.63
2019-03-12T02:15:42.899Z,7.30
2019-03-12T02:18:14.026Z,11.60
2019-03-12T02:20:45.251Z,8.83
2019-03-12T02:23:18.959Z,6.97
2019-03-12T02:25:49.930Z,11.20
2019-03-12T02:28:21.328Z,11.30
2019-03-12T02:30:52.568Z,9.33
2019-03-12T02:33:23.785Z,14.37
2019-03-12T02:35:54.936Z,12.07
2019-03-12T02:38:26.415Z,9.57
2019-03-12T02:40:57.844Z,12.30
2019-03-12T02:43:28.975Z,10.93
2019-03-12T02:46:00.132Z,13.77
2019-03-12T02:48:31.032Z,10.33
2019-03-12T02:51:02.448Z,9.47
2019-03-12T02:53:33.349Z,12.47
2019-03-12T02:56:04.584Z,11.67
2019-03-12T02:58:35.749Z,10.93
2019-03-12T03:01:06.911Z,11.03
2019-03-12T03:03:37.830Z,12.83
2019-03-12T03:06:20.037Z,14.80
2019-03-12T03:08:51.164Z,11.60
2019-03-12T03:11:22.062Z,13.03
2019-03-12T03:13:53.217Z,13.03
2019-03-12T03:16:24.802Z,10.90
2019-03-12T03:18:55.987Z,14.77
2019-03-12T03:21:27.393Z,14.47
2019-03-12T03:23:58.633Z,9.07
2019-03-12T03:26:29.778Z,12.97
2019-03-12T03:29:00.912Z,14.83
2019-03-12T03:31:32.085Z,11.73
2019-03-12T03:34:03.238Z,13.53
2019-03-12T03:36:34.210Z,11.70
2019-03-12T03:39:05.968Z,14.73
2019-03-12T03:41:38.720Z,10.57
2019-03-12T03:44:09.912Z,14.63
2019-03-12T03:46:41.330Z,14.37
2019-03-12T03:49:12.301Z,13.80
2019-03-12T03:51:44.689Z,12.80
2019-03-12T03:54:16.078Z,13.33
2019-03-12T03:56:47.488Z,13.90
2019-03-12T03:59:18.642Z,11.77
2019-03-12T04:01:49.880Z,15.30
2019-03-12T04:04:21.013Z,14.57
2019-03-12T04:06:51.919Z,18.47
2019-03-12T04:09:22.902Z,14.83
2019-03-12T04:11:54.069Z,12.83
2019-03-12T04:14:25.034Z,13.00
2019-03-12T04:16:56.216Z,15.43
2019-03-12T04:19:27.391Z,14.73
2019-03-12T04:21:58.759Z,14.33
2019-03-12T04:24:29.994Z,12.03
2019-03-12T04:27:00.893Z,15.47
2019-03-12T04:29:32.088Z,13.07
2019-03-12T04:32:03.246Z,13.00
2019-03-12T04:34:37.263Z,18.27
2019-03-12T04:37:08.418Z,8.83
2019-03-12T04:39:39.555Z,14.00
2019-03-12T04:42:10.708Z,13.63
2019-03-12T04:44:41.827Z,15.37
2019-03-12T04:47:13.043Z,13.50
2019-03-12T04:49:44.449Z,12.63
2019-03-12T04:52:17.263Z,12.87
2019-03-12T04:54:48.411Z,14.63
2019-03-12T04:57:19.298Z,12.63
2019-03-12T04:59:50.204Z,11.77
2019-03-12T05:02:21.102Z,13.40
2019-03-12T05:04:53.845Z,12.80
2019-03-12T05:07:24.996Z,12.83
2019-03-12T05:09:56.135Z,15.93
2019-03-12T05:12:30.425Z,10.23
2019-03-12T05:15:00.281Z,10.77
2019-03-12T05:17:34.432Z,15.33
2019-03-12T05:20:07.473Z,11.97
2019-03-12T05:22:38.442Z,13.07
2019-03-12T05:25:11.328Z,9.27
2019-03-12T05:27:42.548Z,7.57
2019-03-12T05:30:15.985Z,13.33
2019-03-12T05:32:46.886Z,9.23
2019-03-12T05:35:18.034Z,10.27
2019-03-12T05:37:49.175Z,14.67
2019-03-12T05:40:20.302Z,9.67
2019-03-12T05:42:51.451Z,11.80
2019-03-12T05:45:22.831Z,11.97
2019-03-12T05:47:53.737Z,16.03
2019-03-12T05:50:24.872Z,9.90
2019-03-12T05:53:11.579Z,10.30
2019-03-12T05:55:42.784Z,10.60
2019-03-12T05:58:14.266Z,9.63
2019-03-12T06:00:45.485Z,11.90
2019-03-12T06:03:16.659Z,11.30
2019-03-12T06:05:47.779Z,13.83
2019-03-12T06:08:20.846Z,10.63
2019-03-12T06:10:59.900Z,9.17
2019-03-12T06:13:41.422Z,10.67
2019-03-12T06:16:12.651Z,15.10
2019-03-12T06:18:43.539Z,14.17
2019-03-12T06:21:14.434Z,18.10
2019-03-12T06:23:45.657Z,9.23
2019-03-12T06:26:16.811Z,16.00
2019-03-12T06:28:47.945Z,8.87
2019-03-12T06:31:43.986Z,13.53
2019-03-12T06:34:19.340Z,9.88
2019-03-12T06:36:58.460Z,13.53
2019-03-12T06:39:35.035Z,13.37
2019-03-12T06:42:23.499Z,11.73
2019-03-12T06:45:03.944Z,9.03
2019-03-12T06:47:46.569Z,11.23
2019-03-12T06:50:29.840Z,11.00
2019-03-12T06:53:15.972Z,10.03
2019-03-12T06:56:05.063Z,8.83
2019-03-12T06:58:50.255Z,12.27
2019-03-12T07:01:52.903Z,9.40
2019-03-12T07:04:42.891Z,12.87
2019-03-12T07:07:41.622Z,10.13
2019-03-12T07:10:29.454Z,8.37
2019-03-12T07:13:18.408Z,13.13
2019-03-12T07:16:11.451Z,13.23
2019-03-12T07:18:52.355Z,13.77
2019-03-12T07:21:39.891Z,12.17
2019-03-12T07:24:27.388Z,10.70
2019-03-12T07:27:17.874Z,11.67
2019-03-12T07:30:13.908Z,10.83
2019-03-12T07:33:09.683Z,10.63
2019-03-12T07:36:02.724Z,8.97
2019-03-12T07:38:45.367Z,13.77
2019-03-12T07:41:34.294Z,7.83
2019-03-12T07:44:27.858Z,10.90
2019-03-12T07:47:21.288Z,11.03
2019-03-12T07:50:11.283Z,6.33
2019-03-12T07:53:09.879Z,7.37
2019-03-12T07:56:00.107Z,7.87
2019-03-12T07:58:49.864Z,6.90
2019-03-12T08:01:45.194Z,8.50
2019-03-12T08:04:34.268Z,8.60
2019-03-12T08:07:20.401Z,9.80
2019-03-12T08:10:13.425Z,6.20
2019-03-12T08:13:02.203Z,9.90
2019-03-12T08:15:59.576Z,8.47
2019-03-12T08:18:48.571Z,9.30
2019-03-12T08:21:36.042Z,9.43
2019-03-12T08:24:32.331Z,10.17
2019-03-12T08:27:25.910Z,4.70
2019-03-12T08:30:12.567Z,12.13
2019-03-12T08:33:01.408Z,11.37
2019-03-12T08:36:04.031Z,11.97
2019-03-12T08:38:42.202Z,7.30
2019-03-12T08:41:38.240Z,9.23
2019-03-12T08:44:27.528Z,12.73
2019-03-12T08:47:08.446Z,10.13
2019-03-12T08:50:04.692Z,9.23
2019-03-12T08:53:10.308Z,7.93
2019-03-12T08:55:50.113Z,11.20
2019-03-12T08:58:40.366Z,11.90
2019-03-12T09:01:33.778Z,12.53
2019-03-12T09:04:23.851Z,8.47
2019-03-12T09:07:09.984Z,8.73
2019-03-12T09:10:03.245Z,5.60
2019-03-12T09:12:40.773Z,6.97
2019-03-12T09:15:22.479Z,8.50
2019-03-12T09:18:21.888Z,8.50
2019-03-12T09:21:03.356Z,13.87
2019-03-12T09:23:41.919Z,6.37
2019-03-12T09:26:35.043Z,8.73
2019-03-12T09:29:34.242Z,13.87
2019-03-12T09:32:17.531Z,6.20
2019-03-12T09:34:57.980Z,8.00
2019-03-12T09:37:46.904Z,5.83
2019-03-12T09:40:31.293Z,12.77
2019-03-12T09:43:22.092Z,8.57
2019-03-12T09:46:08.048Z,6.07
2019-03-12T09:48:57.400Z,6.03
2019-03-12T09:51:36.713Z,6.20
2019-03-12T09:54:32.626Z,11.90
2019-03-12T09:57:11.759Z,9.17
2019-03-12T10:00:15.038Z,7.60
2019-03-12T10:03:13.009Z,6.57
2019-03-12T10:06:09.267Z,8.07
2019-03-12T10:08:59.558Z,7.10
2019-03-12T10:11:56.057Z,8.37
2019-03-12T10:14:49.067Z,5.80
2019-03-12T10:17:40.019Z,10.00
2019-03-12T10:20:37.791Z,7.23
2019-03-12T10:23:18.359Z,6.93
2019-03-12T10:26:07.462Z,8.27
2019-03-12T10:29:09.801Z,8.07
2019-03-12T10:31:57.227Z,8.57
2019-03-12T10:34:46.154Z,10.53
2019-03-12T10:37:39.113Z,8.90
2019-03-12T10:40:30.615Z,7.43
2019-03-12T10:43:30.643Z,10.53
2019-03-12T10:46:19.512Z,4.23
2019-03-12T10:48:50.701Z,8.80
2019-03-12T10:51:22.351Z,11.57
2019-03-12T10:53:53.796Z,4.90
2019-03-12T10:56:24.972Z,4.37
2019-03-12T10:58:55.856Z,8.67
2019-03-12T11:01:27.084Z,8.77
2019-03-12T11:03:58.275Z,8.00
2019-03-12T11:06:29.408Z,8.73
2019-03-12T11:09:00.600Z,5.30
2019-03-12T11:11:33.342Z,6.20
2019-03-12T11:14:04.512Z,8.77
2019-03-12T11:16:35.398Z,5.53
2019-03-12T11:19:06.609Z,6.87
2019-03-12T11:21:37.778Z,11.30
2019-03-12T11:24:08.905Z,6.20
2019-03-12T11:26:40.119Z,6.53
2019-03-12T11:29:11.323Z,6.20
2019-03-12T11:31:42.730Z,5.50
2019-03-12T11:34:13.855Z,6.50
2019-03-12T11:36:44.752Z,5.67
2019-03-12T11:39:15.988Z,4.77
2019-03-12T11:41:47.405Z,6.30
2019-03-12T11:44:18.874Z,5.07
2019-03-12T11:46:49.873Z,5.60
2019-03-12T11:49:21.644Z,5.43
2019-03-12T11:51:52.905Z,7.90
2019-03-12T11:54:24.099Z,7.50
2019-03-12T11:56:56.565Z,9.57
2019-03-12T11:59:27.501Z,5.10
2019-03-12T12:01:58.912Z,6.67
2019-03-12T12:04:30.031Z,7.13
2019-03-12T12:07:01.186Z,10.37
2019-03-12T12:09:32.156Z,6.53
2019-03-12T12:12:03.339Z,6.47
2019-03-12T12:14:34.215Z,6.13
2019-03-12T12:17:05.867Z,10.83
2019-03-12T12:19:36.989Z,9.57
2019-03-12T12:22:08.391Z,22.87
2019-03-12T12:24:39.521Z,8.83
2019-03-12T12:27:10.749Z,8.80
2019-03-12T12:29:41.646Z,3.90
2019-03-12T12:32:12.779Z,9.83
2019-03-12T12:34:44.444Z,5.97
2019-03-12T12:37:15.663Z,6.70
2019-03-12T12:39:46.792Z,8.77
2019-03-12T12:42:17.703Z,5.93
2019-03-12T12:44:49.074Z,6.30
2019-03-12T12:47:20.374Z,9.47
2019-03-12T12:49:51.515Z,6.20
2019-03-12T12:52:22.924Z,6.30
2019-03-12T12:54:54.055Z,5.13
2019-03-12T12:57:25.230Z,7.83
2019-03-12T12:59:56.360Z,3.83
2019-03-12T13:02:27.571Z,4.40
2019-03-12T13:04:58.687Z,3.10
2019-03-12T13:07:30.587Z,6.27
2019-03-12T13:10:01.681Z,7.87
2019-03-12T13:12:33.216Z,7.70
2019-03-12T13:15:05.184Z,8.17
2019-03-12T13:17:36.500Z,5.77
2019-03-12T13:20:07.888Z,6.23
2019-03-12T13:22:39.095Z,3.57
2019-03-12T13:25:10.277Z,3.27
2019-03-12T13:27:42.721Z,3.13
2019-03-12T13:30:16.797Z,7.10
2019-03-12T13:32:48.115Z,3.93
2019-03-12T13:35:19.511Z,6.40
2019-03-12T13:37:50.666Z,5.00
2019-03-12T13:40:22.486Z,4.70
2019-03-12T13:42:53.880Z,10.20
2019-03-12T13:45:25.281Z,5.20
2019-03-12T13:47:56.666Z,8.53
2019-03-12T13:50:28.377Z,3.07
2019-03-12T13:52:59.675Z,7.63
2019-03-12T13:55:30.879Z,6.37
2019-03-12T13:58:02.105Z,4.17
2019-03-12T14:00:33.800Z,7.87
2019-03-12T14:03:05.101Z,5.30
2019-03-12T14:05:36.052Z,6.53
2019-03-12T14:08:07.264Z,5.50
2019-03-12T14:10:38.471Z,9.77
2019-03-12T14:13:09.678Z,7.17
2019-03-12T14:15:41.129Z,7.60
2019-03-12T14:18:12.271Z,8.03
2019-03-12T14:20:52.112Z,7.60
2019-03-12T14:23:41.304Z,4.93
2019-03-12T14:26:13.593Z,8.87
2019-03-12T14:28:44.792Z,6.47
2019-03-12T14:31:16.382Z,5.73
2019-03-12T14:33:47.667Z,5.83
2019-03-12T14:36:18.943Z,3.53
2019-03-12T14:38:50.159Z,10.53
2019-03-12T14:41:22.835Z,6.37
2019-03-12T14:43:53.726Z,5.37
2019-03-12T14:46:24.755Z,6.00
2019-03-12T14:48:58.112Z,3.20
2019-03-12T14:51:51.723Z,6.03
2019-03-12T14:54:22.946Z,3.17
2019-03-12T14:56:54.101Z,4.00
2019-03-12T14:59:25.330Z,5.87
2019-03-12T15:01:56.693Z,5.57
2019-03-12T15:04:27.835Z,3.73
2019-03-12T15:06:58.968Z,5.97
2019-03-12T15:09:29.865Z,8.97
2019-03-12T15:12:01.287Z,8.97
2019-03-12T15:14:33.686Z,6.10
2019-03-12T15:17:05.067Z,3.97
2019-03-12T15:19:36.202Z,5.67
2019-03-12T15:22:07.360Z,8.20
2019-03-12T15:24:38.551Z,5.83
2019-03-12T15:27:10.327Z,4.83
2019-03-12T15:29:42.022Z,8.17
2019-03-12T15:32:13.542Z,4.73
2019-03-12T15:34:44.683Z,5.17
2019-03-12T15:37:15.799Z,3.27
2019-03-12T15:39:47.467Z,7.17
2019-03-12T15:42:18.595Z,4.27
2019-03-12T15:44:49.819Z,4.23
2019-03-12T15:47:20.927Z,6.33
2019-03-12T15:49:52.072Z,4.37
2019-03-12T15:52:23.199Z,7.20
2019-03-12T15:54:54.694Z,6.17
2019-03-12T15:57:26.082Z,5.03
2019-03-12T15:59:56.967Z,5.23
2019-03-12T16:02:28.136Z,5.50
2019-03-12T16:04:59.044Z,8.13
2019-03-12T16:07:30.177Z,5.83
2019-03-12T16:10:01.684Z,6.53
2019-03-12T16:12:33.040Z,8.17
2019-03-12T16:15:06.056Z,8.33
2019-03-12T16:17:37.612Z,4.67
2019-03-12T16:20:10.247Z,6.40
2019-03-12T16:22:41.375Z,3.63
2019-03-12T16:25:14.157Z,4.40
2019-03-12T16:27:45.599Z,10.10
2019-03-12T16:30:18.113Z,4.17
2019-03-12T16:32:49.315Z,5.20
2019-03-12T16:35:20.525Z,3.97
2019-03-12T16:37:51.683Z,4.87
2019-03-12T16:40:22.610Z,4.47
2019-03-12T16:42:53.502Z,3.90
2019-03-12T16:45:25.836Z,5.70
2019-03-12T16:47:57.035Z,3.13
2019-03-12T16:50:28.291Z,3.93
2019-03-12T16:52:59.439Z,10.40
2019-03-12T16:55:30.658Z,6.30
2019-03-12T16:58:01.683Z,4.20
2019-03-12T17:00:32.923Z,7.33
2019-03-12T17:03:04.158Z,5.63
2019-03-12T17:05:35.341Z,6.00
2019-03-12T17:08:07.562Z,7.23
2019-03-12T17:10:38.456Z,6.67
2019-03-12T17:13:09.554Z,3.87
2019-03-12T17:15:40.536Z,4.43
2019-03-12T17:18:12.663Z,3.70
2019-03-12T17:20:43.838Z,6.73
2019-03-12T17:23:14.814Z,7.63
2019-03-12T17:25:46.004Z,5.53
2019-03-12T17:28:17.202Z,8.60
2019-03-12T17:30:48.239Z,6.53
2019-03-12T17:33:19.715Z,2.60
2019-03-12T17:35:52.267Z,6.93
2019-03-12T17:38:23.711Z,5.67
2019-03-12T17:40:54.987Z,4.53
2019-03-12T17:43:26.447Z,3.97
2019-03-12T17:45:57.847Z,14.13
2019-03-12T17:48:28.751Z,7.90
2019-03-12T17:50:59.947Z,3.07
2019-03-12T17:53:30.988Z,4.10
2019-03-12T17:56:02.224Z,3.50
2019-03-12T17:58:33.339Z,6.10
2019-03-12T18:01:04.645Z,9.30
2019-03-12T18:03:35.526Z,9.37
2019-03-12T18:06:06.783Z,8.77
2019-03-12T18:08:38.059Z,8.47
2019-03-12T18:11:09.292Z,7.00
2019-03-12T18:13:40.747Z,4.30
2019-03-12T18:16:12.417Z,5.10
2019-03-12T18:18:43.893Z,4.73
2019-03-12T18:21:14.814Z,6.23
2019-03-12T18:23:45.938Z,6.23
2019-03-12T18:26:18.711Z,6.10
2019-03-12T18:28:50.172Z,7.53
2019-03-12T18:31:21.643Z,6.33
2019-03-12T18:33:52.604Z,3.63
2019-03-12T18:36:24.120Z,6.23
2019-03-12T18:38:55.592Z,4.60
2019-03-12T18:41:26.811Z,6.87
2019-03-12T18:43:59.565Z,6.07
2019-03-12T18:46:31.215Z,9.33
2019-03-12T18:49:02.623Z,4.70
2019-03-12T18:51:34.118Z,4.27
2019-03-12T18:54:05.469Z,5.00
2019-03-12T18:56:36.494Z,6.40
2019-03-12T18:59:07.644Z,5.53
2019-03-12T19:01:39.763Z,8.67
2019-03-12T19:04:11.207Z,9.37
2019-03-12T19:06:47.210Z,5.37
2019-03-12T19:09:19.457Z,4.87
2019-03-12T19:11:50.595Z,6.87
2019-03-12T19:14:21.733Z,9.23
2019-03-12T19:16:53.490Z,6.63
2019-03-12T19:19:24.551Z,7.23
2019-03-12T19:21:55.763Z,6.70
2019-03-12T19:24:26.988Z,6.07
2019-03-12T19:26:58.746Z,11.27
2019-03-12T19:29:31.017Z,8.13
2019-03-12T19:32:20.123Z,10.00
2019-03-12T19:34:51.275Z,9.67
2019-03-12T19:37:22.864Z,7.20
2019-03-12T19:39:53.975Z,8.53
2019-03-12T19:42:25.133Z,6.07
2019-03-12T19:44:56.540Z,6.90
2019-03-12T19:47:27.742Z,5.40
2019-03-12T19:49:58.875Z,4.37
2019-03-12T19:52:30.610Z,2.77
2019-03-12T19:55:01.619Z,2.83
2019-03-12T19:57:32.753Z,2.23
2019-03-12T20:00:04.228Z,1.47
2019-03-12T20:02:36.116Z,2.30
2019-03-12T20:05:08.472Z,1.17
2019-03-12T20:07:39.799Z,1.20
2019-03-12T20:10:57.608Z,1.40
2019-03-12T20:14:04.924Z,1.30
2019-03-12T20:17:13.278Z,3.43
2019-03-12T20:20:27.158Z,2.33
2019-03-12T20:23:34.144Z,3.43
2019-03-12T20:26:41.111Z,2.83
2019-03-12T20:30:05.019Z,1.93
2019-03-12T20:33:18.064Z,2.70
2019-03-12T20:36:22.800Z,1.20
2019-03-12T20:39:40.803Z,1.63
2019-03-12T20:42:44.840Z,2.70
2019-03-12T20:46:05.303Z,2.00
2019-03-12T20:49:15.808Z,1.70
2019-03-12T20:52:14.651Z,3.17
2019-03-12T20:55:17.028Z,3.90
2019-03-12T20:58:26.667Z,1.90
2019-03-12T21:01:49.705Z,1.73
2019-03-12T21:05:14.527Z,1.73
2019-03-12T21:08:31.819Z,0.90
2019-03-12T21:11:35.242Z,1.70
2019-03-12T21:14:26.223Z,1.77
2019-03-12T21:17:41.575Z,2.57
2019-03-12T21:20:53.137Z,1.33
2019-03-12T21:23:49.755Z,2.33
2019-03-12T21:26:48.466Z,2.33
2019-03-12T21:29:44.983Z,1.07
2019-03-12T21:32:17.616Z,3.17
2019-03-12T21:34:49.178Z,2.63
2019-03-12T21:37:20.504Z,4.60
2019-03-12T21:39:55.594Z,2.43
2019-03-12T21:42:25.626Z,3.30
2019-03-12T21:44:57.299Z,2.50
2019-03-12T21:47:29.539Z,3.27
2019-03-12T21:50:00.668Z,3.50
2019-03-12T21:52:31.544Z,3.87
2019-03-12T21:55:02.441Z,4.63
2019-03-12T21:57:33.632Z,3.40
2019-03-12T22:00:05.585Z,2.57
2019-03-12T22:02:38.307Z,3.80
2019-03-12T22:05:09.584Z,2.63
2019-03-12T22:07:40.723Z,2.47
2019-03-12T22:10:12.170Z,4.00
2019-03-12T22:12:43.291Z,3.00
2019-03-12T22:15:15.293Z,4.17
2019-03-12T22:17:46.406Z,4.23
2019-03-12T22:20:17.559Z,6.47
2019-03-12T22:23:02.640Z,2.67
2019-03-12T22:25:33.771Z,5.70
2019-03-12T22:28:06.294Z,2.70
2019-03-12T22:30:37.415Z,2.77
2019-03-12T22:33:08.571Z,3.87
2019-03-12T22:35:39.477Z,5.10
2019-03-12T22:38:10.893Z,1.57
2019-03-12T22:40:42.183Z,6.50
2019-03-12T22:43:13.395Z,8.97
2019-03-12T22:45:44.741Z,8.07
2019-03-12T22:48:16.139Z,5.67
2019-03-12T22:50:47.347Z,4.77
2019-03-12T22:53:19.439Z,2.23
2019-03-12T22:55:50.345Z,2.30
2019-03-12T22:58:21.449Z,7.87
2019-03-12T23:01:10.975Z,4.10
2019-03-12T23:04:00.170Z,7.90
2019-03-12T23:06:49.250Z,3.30
2019-03-12T23:09:38.617Z,4.27
2019-03-12T23:12:11.387Z,8.23
2019-03-12T23:14:44.192Z,12.20
2019-03-12T23:17:16.895Z,4.60
2019-03-12T23:19:49.205Z,5.20
2019-03-12T23:22:20.837Z,6.97
2019-03-12T23:24:55.650Z,7.27
2019-03-12T23:27:27.112Z,6.93
2019-03-12T23:29:58.368Z,6.43
2019-03-12T23:32:29.444Z,11.87
2019-03-12T23:35:00.934Z,5.03
2019-03-12T23:37:32.432Z,4.30
2019-03-12T23:40:03.472Z,4.73
2019-03-12T23:42:34.586Z,6.40
2019-03-12T23:45:06.507Z,9.90
2019-03-12T23:47:37.787Z,9.87
2019-03-12T23:50:09.192Z,7.43
2019-03-12T23:52:40.487Z,6.27
2019-03-12T23:55:12.032Z,8.60
2019-03-12T23:57:44.467Z,3.60
